sensor_id;sensor_type;location;lat;lon;timestamp;pressure;altitude;pressure_sealevel;temperature;humidity
19783;BME280;10051;40.294;-3.754;2022-09-09T00:01:42;94344.94;;;24.50;50.36
19783;BME280;10051;40.294;-3.754;2022-09-09T00:06:46;94385.59;;;24.75;50.51
19783;BME280;10051;40.294;-3.754;2022-09-09T00:09:18;94387.81;;;24.70;50.26
19783;BME280;10051;40.294;-3.754;2022-09-09T00:12:11;94363.41;;;24.55;50.46
19783;BME280;10051;40.294;-3.754;2022-09-09T00:17:06;94383.06;;;24.59;50.60
19783;BME280;10051;40.294;-3.754;2022-09-09T00:19:56;94386.13;;;24.58;50.75
19783;BME280;10051;40.294;-3.754;2022-09-09T00:22:28;94367.59;;;24.49;50.62
19783;BME280;10051;40.294;-3.754;2022-09-09T00:25:08;94389.63;;;24.62;50.66
19783;BME280;10051;40.294;-3.754;2022-09-09T00:27:46;94332.72;;;24.26;50.43
19783;BME280;10051;40.294;-3.754;2022-09-09T00:30:18;94363.78;;;24.54;50.47
19783;BME280;10051;40.294;-3.754;2022-09-09T00:33:15;94310.75;;;24.20;50.56
19783;BME280;10051;40.294;-3.754;2022-09-09T00:35:47;94311.84;;;24.15;50.62
19783;BME280;10051;40.294;-3.754;2022-09-09T00:38:25;94331.91;;;24.25;50.69
19783;BME280;10051;40.294;-3.754;2022-09-09T00:43:49;94353.22;;;24.38;51.09
19783;BME280;10051;40.294;-3.754;2022-09-09T00:49:00;94357.44;;;24.39;50.96
19783;BME280;10051;40.294;-3.754;2022-09-09T00:56:38;94294.34;;;23.98;51.07
19783;BME280;10051;40.294;-3.754;2022-09-09T01:01:36;94343.50;;;24.29;51.03
19783;BME280;10051;40.294;-3.754;2022-09-09T01:04:10;94293.78;;;23.89;50.92
19783;BME280;10051;40.294;-3.754;2022-09-09T01:06:41;94348.66;;;24.15;51.19
19783;BME280;10051;40.294;-3.754;2022-09-09T01:09:12;94303.63;;;23.81;51.46
19783;BME280;10051;40.294;-3.754;2022-09-09T01:11:57;94308.38;;;23.91;51.45
19783;BME280;10051;40.294;-3.754;2022-09-09T01:17:21;94365.28;;;24.24;51.49
19783;BME280;10051;40.294;-3.754;2022-09-09T01:22:58;94357.94;;;24.21;51.90
19783;BME280;10051;40.294;-3.754;2022-09-09T01:28:16;94349.38;;;24.12;52.29
19783;BME280;10051;40.294;-3.754;2022-09-09T01:30:43;94293.50;;;23.71;52.56
19783;BME280;10051;40.294;-3.754;2022-09-09T01:33:17;94295.47;;;23.74;52.26
19783;BME280;10051;40.294;-3.754;2022-09-09T01:38:11;94309.81;;;23.85;52.69
19783;BME280;10051;40.294;-3.754;2022-09-09T01:40:37;94341.31;;;24.12;52.32
19783;BME280;10051;40.294;-3.754;2022-09-09T01:43:03;94283.47;;;23.68;52.61
19783;BME280;10051;40.294;-3.754;2022-09-09T01:45:30;94277.53;;;23.55;53.13
19783;BME280;10051;40.294;-3.754;2022-09-09T01:47:56;94280.22;;;23.55;53.24
19783;BME280;10051;40.294;-3.754;2022-09-09T01:50:21;94347.66;;;24.00;53.06
19783;BME280;10051;40.294;-3.754;2022-09-09T01:52:50;94212.72;;;23.06;52.92
19783;BME280;10051;40.294;-3.754;2022-09-09T02:00:51;94298.56;;;23.53;53.67
19783;BME280;10051;40.294;-3.754;2022-09-09T02:03:25;94189.75;;;22.85;53.65
19783;BME280;10051;40.294;-3.754;2022-09-09T02:08:48;94338.22;;;23.86;53.96
19783;BME280;10051;40.294;-3.754;2022-09-09T02:11:16;94316.75;;;23.63;54.04
19783;BME280;10051;40.294;-3.754;2022-09-09T02:13:47;94339.28;;;23.82;54.07
19783;BME280;10051;40.294;-3.754;2022-09-09T02:16:21;94296.31;;;23.55;54.13
19783;BME280;10051;40.294;-3.754;2022-09-09T02:19:01;94286.88;;;23.41;54.51
19783;BME280;10051;40.294;-3.754;2022-09-09T02:21:28;94181.91;;;22.73;54.30
19783;BME280;10051;40.294;-3.754;2022-09-09T02:23:58;94271.38;;;23.31;54.44
19783;BME280;10051;40.294;-3.754;2022-09-09T02:26:25;94278.38;;;23.36;54.26
19783;BME280;10051;40.294;-3.754;2022-09-09T02:28:53;94275.97;;;23.30;54.38
19783;BME280;10051;40.294;-3.754;2022-09-09T02:31:21;94344.91;;;23.73;54.68
19783;BME280;10051;40.294;-3.754;2022-09-09T02:33:52;94322.44;;;23.58;54.63
19783;BME280;10051;40.294;-3.754;2022-09-09T02:36:20;94346.38;;;23.70;54.91
19783;BME280;10051;40.294;-3.754;2022-09-09T02:38:48;94298.78;;;23.44;54.67
19783;BME280;10051;40.294;-3.754;2022-09-09T02:41:18;94309.22;;;23.49;54.61
19783;BME280;10051;40.294;-3.754;2022-09-09T02:43:46;94332.56;;;23.68;54.55
19783;BME280;10051;40.294;-3.754;2022-09-09T02:46:41;94352.47;;;23.67;54.58
19783;BME280;10051;40.294;-3.754;2022-09-09T02:49:11;94287.13;;;23.33;54.87
19783;BME280;10051;40.294;-3.754;2022-09-09T02:52:06;94351.34;;;23.68;54.69
19783;BME280;10051;40.294;-3.754;2022-09-09T02:54:34;94350.44;;;23.60;54.76
19783;BME280;10051;40.294;-3.754;2022-09-09T02:57:12;94344.63;;;23.55;54.62
19783;BME280;10051;40.294;-3.754;2022-09-09T02:59:39;94329.09;;;23.44;55.06
19783;BME280;10051;40.294;-3.754;2022-09-09T03:02:05;94353.94;;;23.61;55.01
19783;BME280;10051;40.294;-3.754;2022-09-09T03:04:31;94345.38;;;23.55;55.21
19783;BME280;10051;40.294;-3.754;2022-09-09T03:06:57;94250.41;;;22.94;54.99
19783;BME280;10051;40.294;-3.754;2022-09-09T03:09:22;94321.22;;;23.32;55.18
19783;BME280;10051;40.294;-3.754;2022-09-09T03:11:48;94320.97;;;23.41;55.00
19783;BME280;10051;40.294;-3.754;2022-09-09T03:14:16;94253.75;;;22.87;55.13
19783;BME280;10051;40.294;-3.754;2022-09-09T03:16:42;94332.06;;;23.39;55.05
19783;BME280;10051;40.294;-3.754;2022-09-09T03:19:08;94341.38;;;23.45;55.33
19783;BME280;10051;40.294;-3.754;2022-09-09T03:21:33;94321.91;;;23.29;55.19
19783;BME280;10051;40.294;-3.754;2022-09-09T03:23:59;94227.31;;;22.66;55.05
19783;BME280;10051;40.294;-3.754;2022-09-09T03:26:25;94294.75;;;23.11;55.40
19783;BME280;10051;40.294;-3.754;2022-09-09T03:28:50;94273.97;;;23.04;55.13
19783;BME280;10051;40.294;-3.754;2022-09-09T03:31:17;94292.22;;;23.18;55.25
19783;BME280;10051;40.294;-3.754;2022-09-09T03:33:43;94277.47;;;23.08;54.92
19783;BME280;10051;40.294;-3.754;2022-09-09T03:36:09;94220.53;;;22.72;55.23
19783;BME280;10051;40.294;-3.754;2022-09-09T03:38:34;94333.50;;;23.56;55.06
19783;BME280;10051;40.294;-3.754;2022-09-09T03:41:00;94315.22;;;23.39;55.05
19783;BME280;10051;40.294;-3.754;2022-09-09T03:43:28;94330.16;;;23.63;54.88
19783;BME280;10051;40.294;-3.754;2022-09-09T03:45:54;94333.63;;;23.64;54.50
19783;BME280;10051;40.294;-3.754;2022-09-09T03:48:23;94333.34;;;23.69;54.33
19783;BME280;10051;40.294;-3.754;2022-09-09T03:50:50;94339.44;;;23.66;54.46
19783;BME280;10051;40.294;-3.754;2022-09-09T03:53:18;94337.09;;;23.64;54.46
19783;BME280;10051;40.294;-3.754;2022-09-09T03:55:46;94348.59;;;23.65;54.78
19783;BME280;10051;40.294;-3.754;2022-09-09T03:58:15;94320.47;;;23.55;54.40
19783;BME280;10051;40.294;-3.754;2022-09-09T04:00:41;94342.53;;;23.68;54.69
19783;BME280;10051;40.294;-3.754;2022-09-09T04:03:11;94306.09;;;23.43;54.39
19783;BME280;10051;40.294;-3.754;2022-09-09T04:05:39;94293.53;;;23.28;54.64
19783;BME280;10051;40.294;-3.754;2022-09-09T04:08:08;94324.56;;;23.49;54.88
19783;BME280;10051;40.294;-3.754;2022-09-09T04:10:34;94270.31;;;23.16;54.54
19783;BME280;10051;40.294;-3.754;2022-09-09T04:13:02;94186.56;;;22.56;54.64
19783;BME280;10051;40.294;-3.754;2022-09-09T04:15:27;94321.06;;;23.44;54.46
19783;BME280;10051;40.294;-3.754;2022-09-09T04:17:53;94319.09;;;23.41;54.64
19783;BME280;10051;40.294;-3.754;2022-09-09T04:20:18;94214.25;;;22.64;54.48
19783;BME280;10051;40.294;-3.754;2022-09-09T04:22:44;94320.63;;;23.42;54.63
19783;BME280;10051;40.294;-3.754;2022-09-09T04:25:10;94329.81;;;23.41;54.76
19783;BME280;10051;40.294;-3.754;2022-09-09T04:27:35;94354.22;;;23.56;54.68
19783;BME280;10051;40.294;-3.754;2022-09-09T04:30:01;94324.88;;;23.43;54.54
19783;BME280;10051;40.294;-3.754;2022-09-09T04:32:26;94361.66;;;23.66;54.65
19783;BME280;10051;40.294;-3.754;2022-09-09T04:34:52;94366.44;;;23.76;54.37
19783;BME280;10051;40.294;-3.754;2022-09-09T04:37:18;94368.56;;;23.67;54.81
19783;BME280;10051;40.294;-3.754;2022-09-09T04:39:43;94287.91;;;23.13;54.94
19783;BME280;10051;40.294;-3.754;2022-09-09T04:42:10;94366.31;;;23.69;54.80
19783;BME280;10051;40.294;-3.754;2022-09-09T04:44:36;94304.22;;;23.24;54.91
19783;BME280;10051;40.294;-3.754;2022-09-09T04:47:01;94379.31;;;23.67;55.02
19783;BME280;10051;40.294;-3.754;2022-09-09T04:49:27;94304.91;;;23.21;54.69
19783;BME280;10051;40.294;-3.754;2022-09-09T04:51:52;94230.41;;;22.68;54.97
19783;BME280;10051;40.294;-3.754;2022-09-09T04:54:18;94387.59;;;23.58;54.89
19783;BME280;10051;40.294;-3.754;2022-09-09T04:56:43;94364.41;;;23.46;54.89
19783;BME280;10051;40.294;-3.754;2022-09-09T04:59:09;94372.91;;;23.52;55.00
19783;BME280;10051;40.294;-3.754;2022-09-09T05:01:35;94381.53;;;23.61;54.65
19783;BME280;10051;40.294;-3.754;2022-09-09T05:04:02;94341.13;;;23.31;54.93
19783;BME280;10051;40.294;-3.754;2022-09-09T05:06:28;94327.72;;;23.11;55.10
19783;BME280;10051;40.294;-3.754;2022-09-09T05:08:56;94394.69;;;23.47;55.18
19783;BME280;10051;40.294;-3.754;2022-09-09T05:11:24;94393.22;;;23.50;54.93
19783;BME280;10051;40.294;-3.754;2022-09-09T05:13:51;94385.72;;;23.39;55.16
19783;BME280;10051;40.294;-3.754;2022-09-09T05:16:17;94363.44;;;23.15;55.40
19783;BME280;10051;40.294;-3.754;2022-09-09T05:18:43;94256.78;;;22.46;55.39
19783;BME280;10051;40.294;-3.754;2022-09-09T05:21:10;94345.41;;;22.96;55.86
19783;BME280;10051;40.294;-3.754;2022-09-09T05:23:36;94396.75;;;23.34;55.73
19783;BME280;10051;40.294;-3.754;2022-09-09T05:26:03;94310.94;;;22.75;55.76
19783;BME280;10051;40.294;-3.754;2022-09-09T05:28:29;94401.97;;;23.27;55.75
19783;BME280;10051;40.294;-3.754;2022-09-09T05:30:59;94399.28;;;23.27;56.04
19783;BME280;10051;40.294;-3.754;2022-09-09T05:33:26;94391.81;;;23.16;55.98
19783;BME280;10051;40.294;-3.754;2022-09-09T05:36:04;94343.38;;;22.90;55.83
19783;BME280;10051;40.294;-3.754;2022-09-09T05:38:31;94344.44;;;22.85;55.88
19783;BME280;10051;40.294;-3.754;2022-09-09T05:40:58;94404.38;;;23.12;56.34
19783;BME280;10051;40.294;-3.754;2022-09-09T05:43:25;94408.16;;;23.11;56.29
19783;BME280;10051;40.294;-3.754;2022-09-09T05:46:02;94408.03;;;23.04;56.56
19783;BME280;10051;40.294;-3.754;2022-09-09T05:48:30;94384.88;;;22.96;56.04
19783;BME280;10051;40.294;-3.754;2022-09-09T05:50:56;94386.13;;;22.82;56.50
19783;BME280;10051;40.294;-3.754;2022-09-09T05:53:21;94340.41;;;22.55;56.29
19783;BME280;10051;40.294;-3.754;2022-09-09T05:55:47;94375.81;;;22.65;56.49
19783;BME280;10051;40.294;-3.754;2022-09-09T05:58:13;94407.03;;;22.93;56.57
19783;BME280;10051;40.294;-3.754;2022-09-09T06:00:42;94402.50;;;22.97;56.57
19783;BME280;10051;40.294;-3.754;2022-09-09T06:03:11;94341.88;;;22.53;56.71
19783;BME280;10051;40.294;-3.754;2022-09-09T06:05:36;94338.69;;;22.47;56.55
19783;BME280;10051;40.294;-3.754;2022-09-09T06:08:02;94364.09;;;22.53;56.84
19783;BME280;10051;40.294;-3.754;2022-09-09T06:10:28;94401.66;;;22.73;56.85
19783;BME280;10051;40.294;-3.754;2022-09-09T06:12:53;94383.28;;;22.55;56.98
19783;BME280;10051;40.294;-3.754;2022-09-09T06:15:19;94424.00;;;22.81;57.08
19783;BME280;10051;40.294;-3.754;2022-09-09T06:17:45;94421.66;;;22.79;56.98
19783;BME280;10051;40.294;-3.754;2022-09-09T06:20:10;94384.34;;;22.51;56.90
19783;BME280;10051;40.294;-3.754;2022-09-09T06:22:39;94345.81;;;22.23;57.06
19783;BME280;10051;40.294;-3.754;2022-09-09T06:25:06;94416.31;;;22.79;56.75
19783;BME280;10051;40.294;-3.754;2022-09-09T06:27:32;94390.44;;;22.51;57.16
19783;BME280;10051;40.294;-3.754;2022-09-09T06:29:57;94432.06;;;22.81;56.99
19783;BME280;10051;40.294;-3.754;2022-09-09T06:32:23;94396.41;;;22.61;56.74
19783;BME280;10051;40.294;-3.754;2022-09-09T06:34:48;94373.09;;;22.45;56.79
19783;BME280;10051;40.294;-3.754;2022-09-09T06:37:14;94434.53;;;22.90;56.96
19783;BME280;10051;40.294;-3.754;2022-09-09T06:39:39;94427.28;;;22.90;56.80
19783;BME280;10051;40.294;-3.754;2022-09-09T06:42:05;94311.72;;;22.04;56.89
19783;BME280;10051;40.294;-3.754;2022-09-09T06:44:34;94263.81;;;21.99;56.75
19783;BME280;10051;40.294;-3.754;2022-09-09T06:46:59;94392.56;;;22.97;56.24
19783;BME280;10051;40.294;-3.754;2022-09-09T06:49:24;94335.56;;;22.81;55.17
19783;BME280;10051;40.294;-3.754;2022-09-09T06:51:50;94394.97;;;23.42;54.45
19783;BME280;10051;40.294;-3.754;2022-09-09T06:54:17;94403.78;;;23.62;53.78
19783;BME280;10051;40.294;-3.754;2022-09-09T06:56:43;94339.00;;;23.40;52.69
19783;BME280;10051;40.294;-3.754;2022-09-09T06:59:10;94456.06;;;24.38;52.05
19783;BME280;10051;40.294;-3.754;2022-09-09T07:01:42;94381.59;;;24.12;nan
19783;BME280;10051;40.294;-3.754;2022-09-09T07:04:11;94417.50;;;24.50;50.93
19783;BME280;10051;40.294;-3.754;2022-09-09T07:06:40;94457.25;;;24.91;49.73
19783;BME280;10051;40.294;-3.754;2022-09-09T07:09:10;94454.41;;;25.07;48.89
19783;BME280;10051;40.294;-3.754;2022-09-09T07:11:41;94386.97;;;24.65;47.93
19783;BME280;10051;40.294;-3.754;2022-09-09T07:14:07;94461.56;;;25.26;47.36
19783;BME280;10051;40.294;-3.754;2022-09-09T07:16:33;94459.50;;;25.46;46.70
19783;BME280;10051;40.294;-3.754;2022-09-09T07:19:02;94456.69;;;25.69;45.93
19783;BME280;10051;40.294;-3.754;2022-09-09T07:21:30;94448.78;;;25.88;45.70
19783;BME280;10051;40.294;-3.754;2022-09-09T07:23:56;94413.66;;;25.73;45.18
19783;BME280;10051;40.294;-3.754;2022-09-09T07:26:25;94465.75;;;26.26;44.59
19783;BME280;10051;40.294;-3.754;2022-09-09T07:28:50;94468.88;;;26.35;44.05
19783;BME280;10051;40.294;-3.754;2022-09-09T07:31:24;94422.56;;;26.19;43.91
19783;BME280;10051;40.294;-3.754;2022-09-09T07:33:50;94469.00;;;26.50;43.78
19783;BME280;10051;40.294;-3.754;2022-09-09T07:36:23;94409.53;;;26.28;43.48
19783;BME280;10051;40.294;-3.754;2022-09-09T07:38:57;94464.94;;;26.74;43.55
19783;BME280;10051;40.294;-3.754;2022-09-09T07:43:53;94387.63;;;26.33;43.72
19783;BME280;10051;40.294;-3.754;2022-09-09T07:46:21;94398.19;;;26.60;43.05
19783;BME280;10051;40.294;-3.754;2022-09-09T07:48:49;94423.31;;;26.75;42.71
19783;BME280;10051;40.294;-3.754;2022-09-09T07:51:23;94463.25;;;27.11;42.38
19783;BME280;10051;40.294;-3.754;2022-09-09T07:53:54;94457.09;;;27.14;42.19
19783;BME280;10051;40.294;-3.754;2022-09-09T07:56:21;94474.09;;;27.25;41.90
19783;BME280;10051;40.294;-3.754;2022-09-09T07:58:49;94463.34;;;27.29;41.32
19783;BME280;10051;40.294;-3.754;2022-09-09T08:01:20;94467.63;;;27.37;40.49
19783;BME280;10051;40.294;-3.754;2022-09-09T08:03:51;94469.16;;;27.42;39.97
19783;BME280;10051;40.294;-3.754;2022-09-09T08:06:17;94460.66;;;27.40;39.73
19783;BME280;10051;40.294;-3.754;2022-09-09T08:08:43;94468.00;;;27.46;38.94
19783;BME280;10051;40.294;-3.754;2022-09-09T08:11:13;94460.66;;;27.43;38.29
19783;BME280;10051;40.294;-3.754;2022-09-09T08:13:41;94481.22;;;27.63;38.15
19783;BME280;10051;40.294;-3.754;2022-09-09T08:18:35;94486.66;;;27.70;36.71
19783;BME280;10051;40.294;-3.754;2022-09-09T08:21:06;94454.22;;;27.59;36.62
19783;BME280;10051;40.294;-3.754;2022-09-09T08:23:32;94426.72;;;27.39;36.88
19783;BME280;10051;40.294;-3.754;2022-09-09T08:26:16;94470.47;;;27.73;36.66
19783;BME280;10051;40.294;-3.754;2022-09-09T08:28:43;94361.44;;;27.04;36.23
19783;BME280;10051;40.294;-3.754;2022-09-09T08:31:14;94486.75;;;27.99;35.91
19783;BME280;10051;40.294;-3.754;2022-09-09T08:33:41;94466.25;;;27.90;36.29
19783;BME280;10051;40.294;-3.754;2022-09-09T08:36:09;94486.78;;;28.17;35.76
19783;BME280;10051;40.294;-3.754;2022-09-09T08:38:35;94488.31;;;28.22;35.08
19783;BME280;10051;40.294;-3.754;2022-09-09T08:44:01;94496.84;;;28.34;34.43
19783;BME280;10051;40.294;-3.754;2022-09-09T08:46:39;94496.09;;;28.41;34.63
19783;BME280;10051;40.294;-3.754;2022-09-09T08:52:02;94484.88;;;28.43;34.60
19783;BME280;10051;40.294;-3.754;2022-09-09T08:54:33;94491.44;;;28.45;35.18
19783;BME280;10051;40.294;-3.754;2022-09-09T08:57:01;94444.69;;;28.19;34.92
19783;BME280;10051;40.294;-3.754;2022-09-09T08:59:26;94492.97;;;28.61;34.87
19783;BME280;10051;40.294;-3.754;2022-09-09T09:03:06;94493.75;;;28.58;35.30
19783;BME280;10051;40.294;-3.754;2022-09-09T09:05:28;94500.34;;;28.78;35.10
19783;BME280;10051;40.294;-3.754;2022-09-09T09:08:20;94504.59;;;28.87;34.86
19783;BME280;10051;40.294;-3.754;2022-09-09T09:10:54;94478.28;;;28.73;34.50
19783;BME280;10051;40.294;-3.754;2022-09-09T09:16:06;94510.72;;;29.13;33.74
19783;BME280;10051;40.294;-3.754;2022-09-09T09:18:35;94501.06;;;29.12;33.77
19783;BME280;10051;40.294;-3.754;2022-09-09T09:21:17;94518.06;;;29.16;34.16
19783;BME280;10051;40.294;-3.754;2022-09-09T09:23:54;94462.06;;;28.87;34.37
19783;BME280;10051;40.294;-3.754;2022-09-09T09:26:23;94523.09;;;29.21;34.09
19783;BME280;10051;40.294;-3.754;2022-09-09T09:28:54;94485.97;;;29.11;33.15
19783;BME280;10051;40.294;-3.754;2022-09-09T09:31:21;94483.25;;;29.18;33.07
19783;BME280;10051;40.294;-3.754;2022-09-09T09:33:53;94494.44;;;29.38;32.89
19783;BME280;10051;40.294;-3.754;2022-09-09T09:37:00;94513.34;;;29.49;33.45
19783;BME280;10051;40.294;-3.754;2022-09-09T09:39:32;94502.91;;;29.51;33.54
19783;BME280;10051;40.294;-3.754;2022-09-09T09:42:27;94500.91;;;29.66;33.31
19783;BME280;10051;40.294;-3.754;2022-09-09T09:44:53;94483.56;;;29.49;33.26
19783;BME280;10051;40.294;-3.754;2022-09-09T09:47:21;94525.22;;;29.84;33.25
19783;BME280;10051;40.294;-3.754;2022-09-09T09:49:57;94519.75;;;29.99;33.18
19783;BME280;10051;40.294;-3.754;2022-09-09T09:52:30;94501.94;;;29.90;33.13
19783;BME280;10051;40.294;-3.754;2022-09-09T09:54:57;94465.72;;;29.62;33.49
19783;BME280;10051;40.294;-3.754;2022-09-09T09:57:28;94504.28;;;29.92;33.22
19783;BME280;10051;40.294;-3.754;2022-09-09T10:00:13;94529.84;;;29.98;33.77
19783;BME280;10051;40.294;-3.754;2022-09-09T10:02:41;94528.25;;;30.01;33.84
19783;BME280;10051;40.294;-3.754;2022-09-09T10:05:26;94497.09;;;29.56;33.48
19783;BME280;10051;40.294;-3.754;2022-09-09T10:08:11;94520.56;;;29.81;33.73
19783;BME280;10051;40.294;-3.754;2022-09-09T10:10:47;94516.69;;;29.82;34.21
19783;BME280;10051;40.294;-3.754;2022-09-09T10:13:30;94499.00;;;29.59;33.88
19783;BME280;10051;40.294;-3.754;2022-09-09T10:16:24;94526.75;;;29.85;34.38
19783;BME280;10051;40.294;-3.754;2022-09-09T10:18:59;94506.66;;;29.82;34.17
19783;BME280;10051;40.294;-3.754;2022-09-09T10:26:44;94491.78;;;30.12;33.06
19783;BME280;10051;40.294;-3.754;2022-09-09T10:29:30;94521.88;;;30.33;31.05
19783;BME280;10051;40.294;-3.754;2022-09-09T10:34:55;94511.69;;;30.48;31.70
19783;BME280;10051;40.294;-3.754;2022-09-09T10:40:30;94503.50;;;30.59;31.77
19783;BME280;10051;40.294;-3.754;2022-09-09T10:43:13;94511.50;;;30.73;31.37
19783;BME280;10051;40.294;-3.754;2022-09-09T10:54:05;94502.00;;;30.96;30.92
19783;BME280;10051;40.294;-3.754;2022-09-09T10:56:34;94498.09;;;31.00;30.83
19783;BME280;10051;40.294;-3.754;2022-09-09T11:01:44;94489.56;;;31.02;31.12
19783;BME280;10051;40.294;-3.754;2022-09-09T11:06:48;94492.13;;;31.17;31.43
19783;BME280;10051;40.294;-3.754;2022-09-09T11:09:21;94491.03;;;31.10;30.74
19783;BME280;10051;40.294;-3.754;2022-09-09T11:11:55;94488.41;;;30.99;31.21
19783;BME280;10051;40.294;-3.754;2022-09-09T11:14:36;94483.34;;;31.01;31.38
19783;BME280;10051;40.294;-3.754;2022-09-09T11:20:01;94487.44;;;31.21;31.66
19783;BME280;10051;40.294;-3.754;2022-09-09T11:23:03;94482.06;;;31.17;31.59
19783;BME280;10051;40.294;-3.754;2022-09-09T11:25:25;94475.97;;;31.02;31.67
19783;BME280;10051;40.294;-3.754;2022-09-09T11:31:51;94474.44;;;31.39;31.56
19783;BME280;10051;40.294;-3.754;2022-09-09T11:37:21;94462.91;;;31.28;31.62
19783;BME280;10051;40.294;-3.754;2022-09-09T11:40:17;94458.00;;;31.15;31.98
19783;BME280;10051;40.294;-3.754;2022-09-09T11:42:46;94445.94;;;31.20;31.49
19783;BME280;10051;40.294;-3.754;2022-09-09T11:45:26;94396.38;;;31.12;31.72
19783;BME280;10051;40.294;-3.754;2022-09-09T11:47:59;94469.38;;;31.76;31.42
19783;BME280;10051;40.294;-3.754;2022-09-09T11:52:51;94440.66;;;31.71;30.64
19783;BME280;10051;40.294;-3.754;2022-09-09T11:55:30;94423.63;;;31.67;30.50
19783;BME280;10051;40.294;-3.754;2022-09-09T12:00:42;94425.09;;;31.76;30.26
19783;BME280;10051;40.294;-3.754;2022-09-09T12:06:31;94437.91;;;32.02;29.44
19783;BME280;10051;40.294;-3.754;2022-09-09T12:09:08;94438.53;;;32.14;29.34
19783;BME280;10051;40.294;-3.754;2022-09-09T12:11:36;94463.19;;;32.27;29.71
19783;BME280;10051;40.294;-3.754;2022-09-09T12:14:02;94431.25;;;32.07;30.06
19783;BME280;10051;40.294;-3.754;2022-09-09T12:16:36;94435.81;;;32.14;30.20
19783;BME280;10051;40.294;-3.754;2022-09-09T12:19:23;94438.41;;;32.21;29.65
19783;BME280;10051;40.294;-3.754;2022-09-09T12:21:58;94413.44;;;32.02;29.85
19783;BME280;10051;40.294;-3.754;2022-09-09T12:27:14;94446.22;;;32.19;30.19
19783;BME280;10051;40.294;-3.754;2022-09-09T12:29:55;94414.88;;;32.11;29.82
19783;BME280;10051;40.294;-3.754;2022-09-09T12:32:25;94435.41;;;32.43;29.88
19783;BME280;10051;40.294;-3.754;2022-09-09T12:37:54;94432.28;;;32.65;28.62
19783;BME280;10051;40.294;-3.754;2022-09-09T12:40:29;94429.72;;;32.77;27.88
19783;BME280;10051;40.294;-3.754;2022-09-09T12:42:56;94429.59;;;32.88;27.96
19783;BME280;10051;40.294;-3.754;2022-09-09T12:45:27;94408.78;;;32.74;27.71
19783;BME280;10051;40.294;-3.754;2022-09-09T12:50:30;94425.44;;;32.56;28.58
19783;BME280;10051;40.294;-3.754;2022-09-09T12:52:59;94417.56;;;32.62;29.06
19783;BME280;10051;40.294;-3.754;2022-09-09T12:55:32;94400.34;;;32.69;28.67
19783;BME280;10051;40.294;-3.754;2022-09-09T12:57:59;94342.03;;;32.22;28.11
19783;BME280;10051;40.294;-3.754;2022-09-09T13:00:26;94378.44;;;32.76;27.70
19783;BME280;10051;40.294;-3.754;2022-09-09T13:02:56;94395.03;;;32.85;27.63
19783;BME280;10051;40.294;-3.754;2022-09-09T13:05:23;94414.50;;;33.04;27.34
19783;BME280;10051;40.294;-3.754;2022-09-09T13:07:49;94406.81;;;32.99;27.88
19783;BME280;10051;40.294;-3.754;2022-09-09T13:10:21;94393.53;;;33.01;27.82
19783;BME280;10051;40.294;-3.754;2022-09-09T13:12:48;94389.78;;;32.95;27.27
19783;BME280;10051;40.294;-3.754;2022-09-09T13:15:20;94392.16;;;32.92;27.38
19783;BME280;10051;40.294;-3.754;2022-09-09T13:17:56;94401.22;;;32.86;27.60
19783;BME280;10051;40.294;-3.754;2022-09-09T13:20:22;94379.88;;;32.84;27.10
19783;BME280;10051;40.294;-3.754;2022-09-09T13:22:50;94346.53;;;32.76;27.70
19783;BME280;10051;40.294;-3.754;2022-09-09T13:25:26;94389.97;;;33.24;26.82
19783;BME280;10051;40.294;-3.754;2022-09-09T13:33:23;94382.50;;;33.28;25.98
19783;BME280;10051;40.294;-3.754;2022-09-09T13:36:03;94379.22;;;33.17;26.93
19783;BME280;10051;40.294;-3.754;2022-09-09T13:38:32;94371.69;;;33.25;26.19
19783;BME280;10051;40.294;-3.754;2022-09-09T13:41:08;94373.59;;;32.87;26.84
19783;BME280;10051;40.294;-3.754;2022-09-09T13:43:42;94315.97;;;32.25;26.89
19783;BME280;10051;40.294;-3.754;2022-09-09T13:46:41;94375.88;;;32.21;27.84
19783;BME280;10051;40.294;-3.754;2022-09-09T13:51:44;94346.00;;;32.41;27.40
19783;BME280;10051;40.294;-3.754;2022-09-09T13:54:14;94345.91;;;32.69;26.93
19783;BME280;10051;40.294;-3.754;2022-09-09T13:56:41;94370.31;;;32.96;26.25
19783;BME280;10051;40.294;-3.754;2022-09-09T13:59:14;94364.72;;;33.03;26.67
19783;BME280;10051;40.294;-3.754;2022-09-09T14:01:41;94350.69;;;33.05;26.60
19783;BME280;10051;40.294;-3.754;2022-09-09T14:04:06;94314.66;;;32.77;26.35
19783;BME280;10051;40.294;-3.754;2022-09-09T14:06:32;94343.00;;;33.00;27.00
19783;BME280;10051;40.294;-3.754;2022-09-09T14:09:04;94288.53;;;32.59;26.34
19783;BME280;10051;40.294;-3.754;2022-09-09T14:11:30;94347.75;;;32.96;27.38
19783;BME280;10051;40.294;-3.754;2022-09-09T14:13:55;94302.88;;;32.84;26.62
19783;BME280;10051;40.294;-3.754;2022-09-09T14:16:21;94357.16;;;33.31;25.94
19783;BME280;10051;40.294;-3.754;2022-09-09T14:18:46;94364.75;;;33.40;25.51
19783;BME280;10051;40.294;-3.754;2022-09-09T14:21:12;94316.88;;;33.22;25.48
19783;BME280;10051;40.294;-3.754;2022-09-09T14:23:38;94328.59;;;33.40;25.48
19783;BME280;10051;40.294;-3.754;2022-09-09T14:26:08;94351.72;;;33.68;25.26
19783;BME280;10051;40.294;-3.754;2022-09-09T14:28:35;94264.56;;;33.11;25.14
19783;BME280;10051;40.294;-3.754;2022-09-09T14:31:02;94289.88;;;32.91;25.62
19783;BME280;10051;40.294;-3.754;2022-09-09T14:33:29;94336.72;;;33.03;25.94
19783;BME280;10051;40.294;-3.754;2022-09-09T14:35:59;94349.00;;;32.91;26.37
19783;BME280;10051;40.294;-3.754;2022-09-09T14:38:28;94347.31;;;32.77;26.40
19783;BME280;10051;40.294;-3.754;2022-09-09T14:40:53;94343.81;;;32.56;26.26
19783;BME280;10051;40.294;-3.754;2022-09-09T14:43:19;94310.72;;;32.38;26.49
19783;BME280;10051;40.294;-3.754;2022-09-09T14:45:45;94285.38;;;32.21;27.14
19783;BME280;10051;40.294;-3.754;2022-09-09T14:48:13;94317.41;;;32.53;26.56
19783;BME280;10051;40.294;-3.754;2022-09-09T14:50:39;94335.38;;;32.71;26.91
19783;BME280;10051;40.294;-3.754;2022-09-09T14:53:05;94278.28;;;32.47;25.89
19783;BME280;10051;40.294;-3.754;2022-09-09T14:55:32;94279.75;;;32.31;26.51
19783;BME280;10051;40.294;-3.754;2022-09-09T14:57:57;94267.50;;;32.19;26.74